Etusivu
METAR-TAF:

METAR-TAF

Lentoasemat :

Epinal, Ranska

Leveyspiiri: 48-19-31N, Pituuspiiri: 6-04-00E, korkeus merenpinnasta: 330 m

Tämänhetkinen sää

Tämä raportti tehtiin 18 minuuttia sitten, kello 11.30 UTC
Tuuli 14 kn idästä/koillisesta, vaihdellen pohjoisen/koillisen ja idän välillä
Lämpötila 20°C
Kosteus 37%
Ilmanpaine 1023 hPa
Näkyvyys 10 km tai enemmän
ei pilviä alle 1500 m:ssä eikä cumulonimbus-pilviä

METAR: LFSG 291130Z AUTO 06014KT 020V100 CAVOK 20/05 Q1023

Aika: 13:48 (11:48 UTC)


TAF: puuttuu

Säähavainnot ja -ennusteet yli 4000 lentoasemalta (METAR- ja TAF-raportit).

Käytössä olevat sääasemat on merkitty karttaan keltaisilla ja punaisilla pisteillä.

Aseta hiiri pisteen päälle nähdäksesi sääaseman nimen.

Klikkaa sitten nähdäksesi säähavainnot ja -ennusteet.

Kartan vaihtaminen: klikkaa mustalla rastilla varustettuja vihreitä pisteitä, niin voit zoomata sisään; viivalla varustettua vihreää pistettä, niin voit zoomata ulos tai vihreitä nuolia, niin pääset viereisille kartoille.


METAR-TAF: